Fram — LADA7 — position and weather

sailwx.info

Track history (hours):
 
Tides and Currents Weather Stations Pressure Air Temp Water Temp Dewpoint Dewpoint Depression Visibility Wind Speed Wind Dir Waves Ship Positions

Fram

Last reported at 2017-Sep-20 00:30 UTC. Time now 2017-Sep-20 00:36 UTC.
Position N 61°29' E 004°26'.

Length 114 m; draft 5.1 m.

Type: Ship. MMSI: 258932000.

Date/timePositionNaut miles runAvg speedWind from/ knotsBaromVisibWave heightAir tempDewpointWater temp
2017-Sep-20 00:30N 61°29' E 004°26'815.1
2017-Sep-20 00:00N 61°37' E 004°27'714.8
2017-Sep-19 23:30N 61°44' E 004°31'815.2
2017-Sep-19 23:00N 61°51' E 004°37'714.9
2017-Sep-19 22:30N 61°58' E 004°44'815.4
2017-Sep-19 21:59N 62°05' E 004°50'815.1
2017-Sep-19 21:30N 62°11' E 004°59'715.0
2017-Sep-19 21:00N 62°17' E 005°07'714.7
2017-Sep-19 20:30N 62°23' E 005°17'815.1
2017-Sep-19 20:00N 62°28' E 005°30'713.4
2017-Sep-19 19:30N 62°31' E 005°43'714.5
2017-Sep-19 19:00N 62°27' E 005°57'612.0
2017-Sep-19 18:31N 62°30' E 006°08'611.4
2017-Sep-19 18:00N 62°35' E 006°14'612.3
2017-Sep-19 17:30N 62°38' E 006°25'815.3
2017-Sep-19 17:00N 62°39' E 006°42'815.0
2017-Sep-19 16:30N 62°42' E 006°57'815.0
2017-Sep-19 15:59N 62°39' E 007°13'1313.4
2017-Sep-19 14:59N 62°34' E 007°40'1 0.2
2017-Sep-19 11:34N 62°34' E 007°42'0 0.0
2017-Sep-19 11:16N 62°34' E 007°42'0 0.0
2017-Sep-19 10:58N 62°34' E 007°42'0 0.0
2017-Sep-19 10:10N 62°34' E 007°42'0 0.0
2017-Sep-19 09:58N 62°34' E 007°42'0 0.0
2017-Sep-19 09:10N 62°34' E 007°42'0 0.0
2017-Sep-19 06:16N 62°34' E 007°42'0 0.0
2017-Sep-19 06:00N 62°34' E 007°42'8 6.7
2017-Sep-19 04:52N 62°35' E 007°25'4 9.8
2017-Sep-19 04:30N 62°37' E 007°19'5 9.9
2017-Sep-19 04:00N 62°40' E 007°09'5 9.8
2017-Sep-19 03:30N 62°42' E 007°01'5 8.9
2017-Sep-19 03:00N 62°46' E 006°58'5 9.9
2017-Sep-19 02:30N 62°51' E 006°58'5 9.0
2017-Sep-19 02:00N 62°54' E 006°51'4 8.5
2017-Sep-19 01:30N 62°59' E 006°52'5 9.2
2017-Sep-19 01:00N 63°00' E 007°02'5 9.3
2017-Sep-19 00:30N 63°02' E 007°11'5 9.0
2017-Sep-19 00:00N 63°04' E 007°20'5 9.8
2017-Sep-18 23:30N 63°06' E 007°30'5 9.1
2017-Sep-18 23:00N 63°08' E 007°38'5 9.4
2017-Sep-18 22:30N 63°11' E 007°47'5 9.0
2017-Sep-18 22:00N 63°13' E 007°56'5 9.1
2017-Sep-18 21:30N 63°15' E 008°05'510.2
2017-Sep-18 20:59N 63°18' E 008°14'510.7
2017-Sep-18 20:30N 63°22' E 008°23'510.9
2017-Sep-18 20:00N 63°25' E 008°33'510.8
2017-Sep-18 19:30N 63°27' E 008°44'510.6
2017-Sep-18 18:59N 63°28' E 008°56'510.5
2017-Sep-18 18:30N 63°30' E 009°06'5 9.6
2017-Sep-18 18:00N 63°33' E 009°16'5 9.7
2017-Sep-18 17:30N 63°38' E 009°14'5 9.2
2017-Sep-18 17:00N 63°42' E 009°09'510.4
2017-Sep-18 16:30N 63°42' E 008°57'3 6.0
2017-Sep-18 15:58N 63°44' E 008°51'0 0.0
2017-Sep-18 15:28N 63°44' E 008°51'0 0.0
2017-Sep-18 14:58N 63°44' E 008°51'0 0.0
2017-Sep-18 14:28N 63°44' E 008°51'0 0.0
2017-Sep-18 13:58N 63°44' E 008°51'0 0.0
2017-Sep-18 13:28N 63°44' E 008°51'0 0.1
2017-Sep-18 12:58N 63°44' E 008°51'0 0.1
2017-Sep-18 12:28N 63°44' E 008°51'0 0.0
2017-Sep-18 11:58N 63°44' E 008°51'0 0.0
2017-Sep-18 11:28N 63°44' E 008°51'0 0.1
2017-Sep-18 10:58N 63°44' E 008°51'0 0.0
2017-Sep-18 10:28N 63°44' E 008°51'0 0.0
2017-Sep-18 09:58N 63°44' E 008°51'0 0.0
2017-Sep-18 09:28N 63°44' E 008°51'0 0.0
2017-Sep-18 08:58N 63°44' E 008°51'0 0.0
2017-Sep-18 08:28N 63°44' E 008°51'0 0.0
2017-Sep-18 07:58N 63°44' E 008°51'0 0.0
2017-Sep-18 07:28N 63°44' E 008°51'0 0.0
2017-Sep-18 06:58N 63°44' E 008°51'0 0.0
2017-Sep-18 06:28N 63°44' E 008°51'0 0.1
2017-Sep-18 06:00N 63°44' E 008°51'1 2.7
2017-Sep-18 05:30N 63°43' E 008°53'4 8.0
2017-Sep-18 05:00N 63°45' E 008°60'4 8.6
2017-Sep-18 04:30N 63°48' E 009°06'4 8.3
2017-Sep-18 04:00N 63°51' E 009°13'4 7.0
2017-Sep-18 03:30N 63°54' E 009°19'3 6.4
2017-Sep-18 03:00N 63°56' E 009°24'3 6.5
2017-Sep-18 02:30N 63°58' E 009°29'4 7.1
2017-Sep-18 02:00N 64°02' E 009°32'612.2
2017-Sep-18 01:30N 64°07' E 009°38'612.4
2017-Sep-18 01:00N 64°13' E 009°44'612.5
2017-Sep-18 00:30N 64°18' E 009°52'712.8
2017-Sep-18 00:00N 64°22' E 010°03'612.9
2017-Sep-17 23:30N 64°27' E 010°13'712.9
2017-Sep-17 23:00N 64°31' E 010°24'612.8
2017-Sep-17 22:30N 64°36' E 010°35'612.5
2017-Sep-17 22:00N 64°40' E 010°45'612.4
2017-Sep-17 21:29N 64°44' E 010°57'612.3
2017-Sep-17 21:00N 64°48' E 011°07'2 3.9
2017-Sep-17 20:30N 64°50' E 011°10'4 7.9
2017-Sep-17 20:00N 64°52' E 011°17'612.3
2017-Sep-17 19:30N 64°56' E 011°28'612.2
2017-Sep-17 19:00N 65°00' E 011°39'612.6
2017-Sep-17 18:30N 65°06' E 011°47'713.1
2017-Sep-17 18:00N 65°12' E 011°52'713.2
2017-Sep-17 17:29N 65°18' E 011°59'612.9
2017-Sep-17 17:00N 65°23' E 012°07'1 2.2
2017-Sep-17 16:29N 65°24' E 012°08'0 0.1
2017-Sep-17 15:59N 65°24' E 012°08'0 0.0
2017-Sep-17 15:29N 65°24' E 012°08'0 0.0
2017-Sep-17 14:59N 65°24' E 012°08'0 0.0
2017-Sep-17 14:29N 65°24' E 012°08'0 0.0
2017-Sep-17 13:59N 65°24' E 012°08'0 0.0
2017-Sep-17 13:29N 65°24' E 012°08'0 0.8
2017-Sep-17 13:00N 65°24' E 012°07'4 7.7
2017-Sep-17 12:30N 65°24' E 011°58'612.9
2017-Sep-17 12:01N 65°30' E 011°59'714.4
2017-Sep-17 11:30N 65°36' E 012°10'714.8
2017-Sep-17 11:00N 65°43' E 012°17'714.6
2017-Sep-17 10:30N 65°50' E 012°22'714.1
2017-Sep-17 10:00N 65°57' E 012°25'714.5
2017-Sep-17 09:30N 66°02' E 012°37'713.8
2017-Sep-17 09:00N 66°09' E 012°40'612.8
2017-Sep-17 08:31N 66°14' E 012°32'714.3
2017-Sep-17 08:01N 66°17' E 012°16'3 6.9
2017-Sep-17 07:31N 66°18' E 012°08'4 7.6
2017-Sep-17 07:01N 66°20' E 011°60'510.0
2017-Sep-17 06:31N 66°25' E 011°53'612.5
2017-Sep-17 06:01N 66°31' E 011°52'713.0
2017-Sep-17 05:31N 66°37' E 011°55'713.1
2017-Sep-17 05:01N 66°43' E 012°03'4113.7
2017-Sep-17 02:04N 67°17' E 013°00'113.5
2017-Sep-17 02:00N 67°17' E 013°01'713.8
2017-Sep-17 01:30N 67°23' E 013°11'713.5
2017-Sep-17 01:00N 67°29' E 013°21'713.5
2017-Sep-17 00:30N 67°35' E 013°31'613.2
2017-Sep-17 00:00N 67°40' E 013°40'713.1
2017-Sep-16 23:30N 67°45' E 013°50'713.4
2017-Sep-16 23:00N 67°51' E 013°59'713.8
2017-Sep-16 22:30N 67°57' E 014°09'714.0
2017-Sep-16 22:00N 68°03' E 014°20'714.0
2017-Sep-16 21:30N 68°08' E 014°30'510.1
2017-Sep-16 21:00N 68°14' E 014°33'1 1.1
2017-Sep-16 20:29N 68°14' E 014°33'0 0.0
2017-Sep-16 19:59N 68°14' E 014°33'0 0.0
2017-Sep-16 19:29N 68°14' E 014°33'0 0.0
2017-Sep-16 18:59N 68°14' E 014°33'0 0.0
2017-Sep-16 18:26N 68°14' E 014°33'0 0.0
2017-Sep-16 17:59N 68°14' E 014°33'0 0.0
2017-Sep-16 17:29N 68°14' E 014°33'0 0.0
2017-Sep-16 16:59N 68°14' E 014°33'0 0.0
2017-Sep-16 16:30N 68°14' E 014°33'2 3.9
2017-Sep-16 16:00N 68°13' E 014°37'612.2
2017-Sep-16 15:30N 68°14' E 014°54'815.0
2017-Sep-16 15:00N 68°21' E 014°59'1 1.9
2017-Sep-16 14:30N 68°22' E 014°60'4 7.6
2017-Sep-16 14:00N 68°24' E 015°07'611.2
2017-Sep-16 13:30N 68°30' E 015°12'3 5.8
2017-Sep-16 13:00N 68°33' E 015°09'714.5
2017-Sep-16 12:30N 68°38' E 015°22'713.5
2017-Sep-16 12:00N 68°45' E 015°25'815.1
2017-Sep-16 11:30N 68°52' E 015°31'713.6
2017-Sep-16 11:00N 68°58' E 015°40'510.3
2017-Sep-16 10:30N 68°60' E 015°53'715.0
2017-Sep-16 10:00N 69°05' E 016°07'714.9
2017-Sep-16 09:30N 69°12' E 016°12'714.0
2017-Sep-16 09:00N 69°19' E 016°14'510.6
2017-Sep-16 08:30N 69°24' E 016°10'814.7
2017-Sep-16 07:59N 69°26' E 015°49'714.7
2017-Sep-16 07:30N 69°27' E 015°29'814.6
2017-Sep-16 07:00N 69°28' E 015°08'714.0
2017-Sep-16 06:30N 69°30' E 014°48'  
Track history (hours):
 
Tides and Currents Weather Stations Pressure Air Temp Water Temp Dewpoint Dewpoint Depression Visibility Wind Speed Wind Dir Waves Ship Positions

Fram

Last reported at 2017-Sep-20 00:30 UTC. Time now 2017-Sep-20 00:36 UTC.
Position N 61°29' E 004°26'.

Length 114 m; draft 5.1 m.

Type: Ship. MMSI: 258932000.

Date/timePositionNaut miles runAvg speedWind from/ knotsBaromVisibWave heightAir tempDewpointWater temp
2017-Sep-20 00:30N 61°29' E 004°26'815.1
2017-Sep-20 00:00N 61°37' E 004°27'714.8
2017-Sep-19 23:30N 61°44' E 004°31'815.2
2017-Sep-19 23:00N 61°51' E 004°37'714.9
2017-Sep-19 22:30N 61°58' E 004°44'815.4
2017-Sep-19 21:59N 62°05' E 004°50'815.1
2017-Sep-19 21:30N 62°11' E 004°59'715.0
2017-Sep-19 21:00N 62°17' E 005°07'714.7
2017-Sep-19 20:30N 62°23' E 005°17'815.1
2017-Sep-19 20:00N 62°28' E 005°30'713.4
2017-Sep-19 19:30N 62°31' E 005°43'714.5
2017-Sep-19 19:00N 62°27' E 005°57'612.0
2017-Sep-19 18:31N 62°30' E 006°08'611.4
2017-Sep-19 18:00N 62°35' E 006°14'612.3
2017-Sep-19 17:30N 62°38' E 006°25'815.3
2017-Sep-19 17:00N 62°39' E 006°42'815.0
2017-Sep-19 16:30N 62°42' E 006°57'815.0
2017-Sep-19 15:59N 62°39' E 007°13'1313.4
2017-Sep-19 14:59N 62°34' E 007°40'1 0.2
2017-Sep-19 11:34N 62°34' E 007°42'0 0.0
2017-Sep-19 11:16N 62°34' E 007°42'0 0.0
2017-Sep-19 10:58N 62°34' E 007°42'0 0.0
2017-Sep-19 10:10N 62°34' E 007°42'0 0.0
2017-Sep-19 09:58N 62°34' E 007°42'0 0.0
2017-Sep-19 09:10N 62°34' E 007°42'0 0.0
2017-Sep-19 06:16N 62°34' E 007°42'0 0.0
2017-Sep-19 06:00N 62°34' E 007°42'8 6.7
2017-Sep-19 04:52N 62°35' E 007°25'4 9.8
2017-Sep-19 04:30N 62°37' E 007°19'5 9.9
2017-Sep-19 04:00N 62°40' E 007°09'5 9.8
2017-Sep-19 03:30N 62°42' E 007°01'5 8.9
2017-Sep-19 03:00N 62°46' E 006°58'5 9.9
2017-Sep-19 02:30N 62°51' E 006°58'5 9.0
2017-Sep-19 02:00N 62°54' E 006°51'4 8.5
2017-Sep-19 01:30N 62°59' E 006°52'5 9.2
2017-Sep-19 01:00N 63°00' E 007°02'5 9.3
2017-Sep-19 00:30N 63°02' E 007°11'5 9.0
2017-Sep-19 00:00N 63°04' E 007°20'5 9.8
2017-Sep-18 23:30N 63°06' E 007°30'5 9.1
2017-Sep-18 23:00N 63°08' E 007°38'5 9.4
2017-Sep-18 22:30N 63°11' E 007°47'5 9.0
2017-Sep-18 22:00N 63°13' E 007°56'5 9.1
2017-Sep-18 21:30N 63°15' E 008°05'510.2
2017-Sep-18 20:59N 63°18' E 008°14'510.7
2017-Sep-18 20:30N 63°22' E 008°23'510.9
2017-Sep-18 20:00N 63°25' E 008°33'510.8
2017-Sep-18 19:30N 63°27' E 008°44'510.6
2017-Sep-18 18:59N 63°28' E 008°56'510.5
2017-Sep-18 18:30N 63°30' E 009°06'5 9.6
2017-Sep-18 18:00N 63°33' E 009°16'5 9.7
2017-Sep-18 17:30N 63°38' E 009°14'5 9.2
2017-Sep-18 17:00N 63°42' E 009°09'510.4
2017-Sep-18 16:30N 63°42' E 008°57'3 6.0
2017-Sep-18 15:58N 63°44' E 008°51'0 0.0
2017-Sep-18 15:28N 63°44' E 008°51'0 0.0
2017-Sep-18 14:58N 63°44' E 008°51'0 0.0
2017-Sep-18 14:28N 63°44' E 008°51'0 0.0
2017-Sep-18 13:58N 63°44' E 008°51'0 0.0
2017-Sep-18 13:28N 63°44' E 008°51'0 0.1
2017-Sep-18 12:58N 63°44' E 008°51'0 0.1
2017-Sep-18 12:28N 63°44' E 008°51'0 0.0
2017-Sep-18 11:58N 63°44' E 008°51'0 0.0
2017-Sep-18 11:28N 63°44' E 008°51'0 0.1
2017-Sep-18 10:58N 63°44' E 008°51'0 0.0
2017-Sep-18 10:28N 63°44' E 008°51'0 0.0
2017-Sep-18 09:58N 63°44' E 008°51'0 0.0
2017-Sep-18 09:28N 63°44' E 008°51'0 0.0
2017-Sep-18 08:58N 63°44' E 008°51'0 0.0
2017-Sep-18 08:28N 63°44' E 008°51'0 0.0
2017-Sep-18 07:58N 63°44' E 008°51'0 0.0
2017-Sep-18 07:28N 63°44' E 008°51'0 0.0
2017-Sep-18 06:58N 63°44' E 008°51'0 0.0
2017-Sep-18 06:28N 63°44' E 008°51'0 0.1
2017-Sep-18 06:00N 63°44' E 008°51'1 2.7
2017-Sep-18 05:30N 63°43' E 008°53'4 8.0
2017-Sep-18 05:00N 63°45' E 008°60'4 8.6
2017-Sep-18 04:30N 63°48' E 009°06'4 8.3
2017-Sep-18 04:00N 63°51' E 009°13'4 7.0
2017-Sep-18 03:30N 63°54' E 009°19'3 6.4
2017-Sep-18 03:00N 63°56' E 009°24'3 6.5
2017-Sep-18 02:30N 63°58' E 009°29'4 7.1
2017-Sep-18 02:00N 64°02' E 009°32'612.2
2017-Sep-18 01:30N 64°07' E 009°38'612.4
2017-Sep-18 01:00N 64°13' E 009°44'612.5
2017-Sep-18 00:30N 64°18' E 009°52'712.8
2017-Sep-18 00:00N 64°22' E 010°03'612.9
2017-Sep-17 23:30N 64°27' E 010°13'712.9
2017-Sep-17 23:00N 64°31' E 010°24'612.8
2017-Sep-17 22:30N 64°36' E 010°35'612.5
2017-Sep-17 22:00N 64°40' E 010°45'612.4
2017-Sep-17 21:29N 64°44' E 010°57'612.3
2017-Sep-17 21:00N 64°48' E 011°07'2 3.9
2017-Sep-17 20:30N 64°50' E 011°10'4 7.9
2017-Sep-17 20:00N 64°52' E 011°17'612.3
2017-Sep-17 19:30N 64°56' E 011°28'612.2
2017-Sep-17 19:00N 65°00' E 011°39'612.6
2017-Sep-17 18:30N 65°06' E 011°47'713.1
2017-Sep-17 18:00N 65°12' E 011°52'713.2
2017-Sep-17 17:29N 65°18' E 011°59'612.9
2017-Sep-17 17:00N 65°23' E 012°07'1 2.2
2017-Sep-17 16:29N 65°24' E 012°08'0 0.1
2017-Sep-17 15:59N 65°24' E 012°08'0 0.0
2017-Sep-17 15:29N 65°24' E 012°08'0 0.0
2017-Sep-17 14:59N 65°24' E 012°08'0 0.0
2017-Sep-17 14:29N 65°24' E 012°08'0 0.0
2017-Sep-17 13:59N 65°24' E 012°08'0 0.0
2017-Sep-17 13:29N 65°24' E 012°08'0 0.8
2017-Sep-17 13:00N 65°24' E 012°07'4 7.7
2017-Sep-17 12:30N 65°24' E 011°58'612.9
2017-Sep-17 12:01N 65°30' E 011°59'714.4
2017-Sep-17 11:30N 65°36' E 012°10'714.8
2017-Sep-17 11:00N 65°43' E 012°17'714.6
2017-Sep-17 10:30N 65°50' E 012°22'714.1
2017-Sep-17 10:00N 65°57' E 012°25'714.5
2017-Sep-17 09:30N 66°02' E 012°37'713.8
2017-Sep-17 09:00N 66°09' E 012°40'612.8
2017-Sep-17 08:31N 66°14' E 012°32'714.3
2017-Sep-17 08:01N 66°17' E 012°16'3 6.9
2017-Sep-17 07:31N 66°18' E 012°08'4 7.6
2017-Sep-17 07:01N 66°20' E 011°60'510.0
2017-Sep-17 06:31N 66°25' E 011°53'612.5
2017-Sep-17 06:01N 66°31' E 011°52'713.0
2017-Sep-17 05:31N 66°37' E 011°55'713.1
2017-Sep-17 05:01N 66°43' E 012°03'4113.7
2017-Sep-17 02:04N 67°17' E 013°00'113.5
2017-Sep-17 02:00N 67°17' E 013°01'713.8
2017-Sep-17 01:30N 67°23' E 013°11'713.5
2017-Sep-17 01:00N 67°29' E 013°21'713.5
2017-Sep-17 00:30N 67°35' E 013°31'613.2
2017-Sep-17 00:00N 67°40' E 013°40'713.1
2017-Sep-16 23:30N 67°45' E 013°50'713.4
2017-Sep-16 23:00N 67°51' E 013°59'713.8
2017-Sep-16 22:30N 67°57' E 014°09'714.0
2017-Sep-16 22:00N 68°03' E 014°20'714.0
2017-Sep-16 21:30N 68°08' E 014°30'510.1
2017-Sep-16 21:00N 68°14' E 014°33'1 1.1
2017-Sep-16 20:29N 68°14' E 014°33'0 0.0
2017-Sep-16 19:59N 68°14' E 014°33'0 0.0
2017-Sep-16 19:29N 68°14' E 014°33'0 0.0
2017-Sep-16 18:59N 68°14' E 014°33'0 0.0
2017-Sep-16 18:26N 68°14' E 014°33'0 0.0
2017-Sep-16 17:59N 68°14' E 014°33'0 0.0
2017-Sep-16 17:29N 68°14' E 014°33'0 0.0
2017-Sep-16 16:59N 68°14' E 014°33'0 0.0
2017-Sep-16 16:30N 68°14' E 014°33'2 3.9
2017-Sep-16 16:00N 68°13' E 014°37'612.2
2017-Sep-16 15:30N 68°14' E 014°54'815.0
2017-Sep-16 15:00N 68°21' E 014°59'1 1.9
2017-Sep-16 14:30N 68°22' E 014°60'4 7.6
2017-Sep-16 14:00N 68°24' E 015°07'611.2
2017-Sep-16 13:30N 68°30' E 015°12'3 5.8
2017-Sep-16 13:00N 68°33' E 015°09'714.5
2017-Sep-16 12:30N 68°38' E 015°22'713.5
2017-Sep-16 12:00N 68°45' E 015°25'815.1
2017-Sep-16 11:30N 68°52' E 015°31'713.6
2017-Sep-16 11:00N 68°58' E 015°40'510.3
2017-Sep-16 10:30N 68°60' E 015°53'715.0
2017-Sep-16 10:00N 69°05' E 016°07'714.9
2017-Sep-16 09:30N 69°12' E 016°12'714.0
2017-Sep-16 09:00N 69°19' E 016°14'510.6
2017-Sep-16 08:30N 69°24' E 016°10'814.7
2017-Sep-16 07:59N 69°26' E 015°49'714.7
2017-Sep-16 07:30N 69°27' E 015°29'814.6
2017-Sep-16 07:00N 69°28' E 015°08'714.0
2017-Sep-16 06:30N 69°30' E 014°48'  

Dump ship's entire track history